Time;durP1;ratioP1;P1;durP2;ratioP2;P2;SDS_P1;SDS_P2;PMS_P1;PMS_P2;Temp;Humidity;BMP_temperature;BMP_pressure;BME280_temperature;BME280_humidity;BME280_pressure;Samples;Min_cycle;Max_cycle;Signal;HPM_P1;HPM_P2
2021/06/13 03:05:13;;;;;;;8.60;3.75;;;12.80;95.80;;;;;;5030013;28;20104;-71
2021/06/13 03:07:43;;;;;;;10.77;3.90;;;12.80;95.60;;;;;;5031938;28;20037;-72
2021/06/13 03:10:09;;;;;;;11.68;3.75;;;12.70;95.90;;;;;;5031113;28;20498;-71
2021/06/13 03:12:36;;;;;;;12.98;3.40;;;12.50;96.10;;;;;;5030641;28;20047;-71
2021/06/13 03:15:02;;;;;;;9.20;3.47;;;12.40;96.20;;;;;;5032029;28;20116;-70
2021/06/13 03:20:06;;;;;;;10.52;3.78;;;12.40;96.50;;;;;;5649910;22;20049;-70
2021/06/13 03:22:33;;;;;;;11.05;3.60;;;12.20;96.70;;;;;;5030567;28;20468;-70
2021/06/13 03:25:00;;;;;;;10.43;3.70;;;12.30;96.60;;;;;;5032274;28;20060;-70
2021/06/13 03:30:02;;;;;;;10.90;4.43;;;12.10;97.20;;;;;;5478854;23;20037;-70
2021/06/13 03:32:28;;;;;;;11.27;4.13;;;12.00;97.10;;;;;;5053515;28;20487;-70
2021/06/13 03:34:54;;;;;;;9.52;4.13;;;11.90;97.00;;;;;;5071901;28;20086;-70
2021/06/13 03:37:20;;;;;;;11.18;3.63;;;12.00;97.20;;;;;;5053577;28;20021;-70
2021/06/13 03:39:48;;;;;;;9.35;4.10;;;12.00;97.30;;;;;;5071076;28;20017;-70
2021/06/13 03:42:14;;;;;;;11.80;3.70;;;11.90;97.10;;;;;;5053856;28;20017;-70
2021/06/13 03:44:41;;;;;;;11.02;4.20;;;11.90;97.30;;;;;;5073049;28;20028;-70
2021/06/13 03:54:53;;;;;;;13.02;4.65;;;11.70;98.30;;;;;;5214877;23;20057;-70
2021/06/13 06:52:04;;;;;;;7.97;3.20;;;15.40;83.70;;;;;;5774460;23;20045;-71
2021/06/13 06:54:29;;;;;;;7.03;2.30;;;15.30;83.70;;;;;;5034528;28;20033;-71
2021/06/13 06:56:55;;;;;;;10.52;2.53;;;15.40;85.40;;;;;;5052460;28;20029;-71
2021/06/13 06:59:20;;;;;;;7.45;2.65;;;15.50;83.40;;;;;;5034328;28;20523;-71
2021/06/13 07:01:46;;;;;;;8.00;3.42;;;15.50;86.50;;;;;;5052227;28;20024;-71
2021/06/13 07:04:11;;;;;;;5.72;2.15;;;15.40;87.60;;;;;;5052988;28;20029;-71
2021/06/13 07:06:37;;;;;;;9.80;2.78;;;15.50;80.90;;;;;;5052385;28;20490;-71
2021/06/13 07:09:03;;;;;;;8.55;3.00;;;15.50;81.80;;;;;;5033856;28;20029;-71
2021/06/13 07:11:28;;;;;;;12.10;3.33;;;15.50;82.50;;;;;;5052042;28;20036;-71
2021/06/13 07:13:54;;;;;;;10.70;2.72;;;15.60;83.10;;;;;;5052089;28;20131;-71
2021/06/13 07:16:20;;;;;;;7.68;2.63;;;15.80;80.40;;;;;;5052406;28;20027;-72
2021/06/13 07:18:45;;;;;;;7.95;2.85;;;15.80;81.30;;;;;;5033981;28;20028;-71
2021/06/13 07:21:11;;;;;;;9.32;2.90;;;16.00;84.70;;;;;;5051476;28;20036;-71
2021/06/13 07:23:36;;;;;;;10.57;3.03;;;16.10;86.10;;;;;;5052043;28;20032;-71
2021/06/13 07:26:03;;;;;;;7.68;2.85;;;16.40;84.60;;;;;;5052064;28;20025;-71
2021/06/13 07:28:31;;;;;;;7.38;2.58;;;16.50;84.10;;;;;;5051887;28;20033;-71
2021/06/13 07:30:58;;;;;;;10.13;3.00;;;16.50;77.90;;;;;;5051608;28;20051;-71
2021/06/13 07:33:25;;;;;;;8.90;2.13;;;16.40;78.70;;;;;;5033769;28;20025;-71
2021/06/13 07:35:51;;;;;;;7.57;2.25;;;16.20;78.00;;;;;;5034026;28;20112;-71
2021/06/13 07:38:16;;;;;;;8.15;2.55;;;15.90;77.60;;;;;;5051781;28;20475;-69
2021/06/13 07:40:42;;;;;;;15.35;2.88;;;15.80;80.30;;;;;;5051892;28;20037;-70
2021/06/13 07:43:07;;;;;;;8.15;2.65;;;15.90;80.40;;;;;;5033714;28;20483;-72
2021/06/13 07:45:34;;;;;;;8.43;2.33;;;15.80;79.90;;;;;;5034022;28;20608;-70
2021/06/13 07:47:59;;;;;;;8.73;2.75;;;15.80;79.60;;;;;;5033725;28;20115;-70
2021/06/13 07:50:25;;;;;;;7.78;2.60;;;16.00;79.90;;;;;;5051397;28;20047;-70
2021/06/13 07:52:51;;;;;;;9.43;2.60;;;16.10;82.60;;;;;;5051438;28;20040;-70
2021/06/13 07:55:18;;;;;;;9.15;2.80;;;16.40;79.40;;;;;;5051717;28;20536;-70
2021/06/13 07:57:44;;;;;;;11.52;2.95;;;16.80;84.70;;;;;;5051607;28;20024;-70
2021/06/13 08:00:12;;;;;;;9.77;3.05;;;17.20;85.10;;;;;;5051287;28;20017;-70
2021/06/13 08:02:39;;;;;;;11.75;2.67;;;17.40;81.60;;;;;;5051433;28;20029;-70
2021/06/13 08:05:11;;;;;;;12.45;3.33;;;17.40;78.70;;;;;;5051666;28;20013;-70
2021/06/13 08:07:37;;;;;;;10.73;2.97;;;17.00;77.00;;;;;;5033688;28;20470;-70
2021/06/13 08:10:08;;;;;;;9.07;2.92;;;16.60;80.40;;;;;;5051273;28;20029;-69
2021/06/13 08:12:34;;;;;;;10.63;4.40;;;16.30;79.00;;;;;;5051250;28;20021;-70
2021/06/13 08:15:00;;;;;;;8.73;3.38;;;16.20;82.80;;;;;;5051521;28;20024;-69
2021/06/13 08:17:25;;;;;;;7.40;2.53;;;16.20;79.90;;;;;;5051538;28;20021;-70
2021/06/13 08:19:51;;;;;;;11.13;3.20;;;16.40;80.80;;;;;;5051148;28;20036;-69
2021/06/13 08:22:17;;;;;;;9.68;3.15;;;16.70;82.90;;;;;;5051750;28;20041;-69
2021/06/13 08:24:42;;;;;;;7.43;3.03;;;17.20;81.40;;;;;;5051391;28;20131;-70
2021/06/13 08:27:08;;;;;;;6.75;2.42;;;17.70;84.10;;;;;;5051372;28;20083;-70
2021/06/13 08:29:34;;;;;;;8.63;2.60;;;18.10;81.00;;;;;;5051047;28;20029;-70
2021/06/13 08:31:59;;;;;;;9.00;2.35;;;18.30;76.10;;;;;;5052518;28;20027;-70
2021/06/13 08:34:25;;;;;;;7.03;2.22;;;18.50;78.10;;;;;;5055025;28;20031;-69
2021/06/13 08:36:52;;;;;;;8.43;2.45;;;18.30;74.30;;;;;;5055030;28;20037;-69
2021/06/13 08:39:17;;;;;;;12.50;3.63;;;18.00;76.00;;;;;;5054709;28;20027;-69
2021/06/13 08:41:43;;;;;;;9.75;2.95;;;17.90;75.70;;;;;;5054735;28;20025;-70
2021/06/13 08:44:09;;;;;;;10.40;2.47;;;18.00;77.10;;;;;;5054895;28;20035;-70
2021/06/13 08:46:37;;;;;;;9.05;2.33;;;18.20;75.50;;;;;;5054767;28;20017;-70
2021/06/13 08:49:03;;;;;;;8.85;2.42;;;18.40;75.80;;;;;;5054533;28;20548;-69
2021/06/13 08:51:29;;;;;;;7.70;2.67;;;18.20;73.00;;;;;;5054657;28;20296;-70
2021/06/13 08:53:54;;;;;;;8.00;2.30;;;17.80;75.00;;;;;;5054328;28;20029;-70
2021/06/13 08:56:22;;;;;;;7.60;2.60;;;17.70;76.10;;;;;;5054692;28;20017;-70
2021/06/13 08:58:49;;;;;;;12.57;2.58;;;17.60;73.50;;;;;;5054300;28;20021;-70
2021/06/13 09:01:15;;;;;;;6.35;2.78;;;17.50;76.20;;;;;;5054463;28;20021;-70
2021/06/13 09:03:41;;;;;;;9.38;2.65;;;17.50;74.60;;;;;;5054501;28;20043;-70
2021/06/13 09:06:07;;;;;;;8.40;2.78;;;17.70;74.50;;;;;;5054657;28;20493;-70
2021/06/13 09:08:40;;;;;;;11.77;2.55;;;18.10;79.30;;;;;;5054404;28;20036;-70
2021/06/13 09:11:07;;;;;;;7.55;2.35;;;18.60;76.00;;;;;;5054071;28;20033;-70
2021/06/13 09:13:36;;;;;;;8.55;2.53;;;19.10;72.80;;;;;;5054693;28;20056;-70
2021/06/13 09:16:05;;;;;;;7.13;2.28;;;19.40;75.50;;;;;;5054435;28;20021;-70
2021/06/13 09:18:39;;;;;;;10.23;2.90;;;19.50;71.10;;;;;;5054348;28;20041;-70
2021/06/13 09:21:07;;;;;;;6.90;2.33;;;19.30;69.80;;;;;;5053886;28;20498;-70
2021/06/13 09:23:35;;;;;;;12.27;2.95;;;19.00;70.60;;;;;;5054191;28;20029;-70
2021/06/13 09:26:12;;;;;;;9.63;3.15;;;18.70;72.50;;;;;;5054165;28;20032;-70
2021/06/13 09:28:42;;;;;;;11.15;3.08;;;18.50;73.10;;;;;;5054091;28;20036;-69
2021/06/13 09:31:24;;;;;;;10.57;2.85;;;18.50;75.10;;;;;;5035679;28;20032;-70
2021/06/13 09:33:52;;;;;;;9.57;3.08;;;18.20;74.60;;;;;;5053960;28;20100;-70
2021/06/13 09:36:21;;;;;;;8.48;2.92;;;18.20;76.50;;;;;;5053859;28;20029;-70
2021/06/13 09:38:48;;;;;;;11.02;3.17;;;18.20;74.40;;;;;;5053635;28;20514;-70
2021/06/13 09:41:17;;;;;;;11.63;3.35;;;18.30;75.80;;;;;;5035914;28;20079;-69
2021/06/13 09:43:48;;;;;;;7.28;3.08;;;18.20;74.90;;;;;;5053472;28;20029;-70
2021/06/13 09:46:15;;;;;;;7.35;2.67;;;18.30;75.60;;;;;;5053658;28;20029;-70
2021/06/13 09:48:53;;;;;;;9.60;3.00;;;18.40;74.60;;;;;;5053562;28;20467;-70
2021/06/13 09:51:22;;;;;;;7.22;2.90;;;18.50;74.60;;;;;;5053547;28;20029;-70
2021/06/13 09:53:52;;;;;;;9.88;3.15;;;18.80;74.10;;;;;;5035391;28;20017;-70
2021/06/13 09:56:20;;;;;;;;;;;19.00;74.40;;;;;;5054483;28;20433;-70
2021/06/13 09:58:51;;;;;;;10.25;2.78;;;19.00;75.90;;;;;;5035385;28;20004;-70
2021/06/13 10:01:17;;;;;;;7.65;2.85;;;19.10;72.40;;;;;;5053627;28;20029;-70
2021/06/13 10:03:46;;;;;;;11.45;3.35;;;18.80;72.60;;;;;;5053560;28;20445;-70
2021/06/13 10:06:13;;;;;;;9.00;2.97;;;18.80;73.00;;;;;;5053289;28;20021;-70
2021/06/13 10:08:41;;;;;;;12.00;3.20;;;18.90;73.00;;;;;;5053271;28;20025;-70
2021/06/13 10:11:08;;;;;;;9.18;3.08;;;18.90;72.40;;;;;;5052900;28;20032;-70
2021/06/13 10:13:42;;;;;;;8.55;2.33;;;18.80;70.30;;;;;;5053075;28;20036;-70
2021/06/13 10:16:10;;;;;;;10.90;3.00;;;18.80;72.40;;;;;;5053242;28;20376;-70
2021/06/13 10:18:42;;;;;;;12.77;3.17;;;18.80;72.70;;;;;;5053081;28;20471;-70
2021/06/13 10:21:12;;;;;;;8.52;2.97;;;18.70;73.80;;;;;;5034935;28;20021;-70
2021/06/13 10:23:41;;;;;;;9.52;2.35;;;19.00;79.70;;;;;;5053035;28;20025;-70
2021/06/13 10:26:07;;;;;;;8.85;3.05;;;19.50;73.00;;;;;;5053005;28;20387;-69
2021/06/13 10:28:34;;;;;;;10.93;3.53;;;19.70;72.80;;;;;;5052878;28;20029;-70
2021/06/13 10:31:00;;;;;;;8.38;2.60;;;19.40;72.60;;;;;;5052620;28;20021;-70
2021/06/13 10:33:26;;;;;;;9.30;2.75;;;19.20;73.10;;;;;;5052752;28;20025;-69
2021/06/13 10:35:52;;;;;;;7.93;2.70;;;19.00;72.90;;;;;;5052740;28;20021;-70
2021/06/13 10:38:18;;;;;;;7.10;2.90;;;18.80;74.80;;;;;;5052698;28;20031;-70
2021/06/13 10:40:43;;;;;;;7.90;3.00;;;18.90;76.40;;;;;;5034545;28;20028;-70
2021/06/13 10:43:09;;;;;;;9.00;2.80;;;19.20;71.60;;;;;;5034648;28;20479;-70
2021/06/13 10:45:35;;;;;;;9.05;2.95;;;19.10;72.90;;;;;;5052643;28;20044;-70
2021/06/13 10:48:09;;;;;;;9.45;3.30;;;18.80;72.60;;;;;;5052627;28;20087;-70
2021/06/13 10:50:37;;;;;;;11.77;2.97;;;18.80;74.50;;;;;;5052314;28;20029;-70
2021/06/13 10:53:04;;;;;;;7.72;2.50;;;19.10;71.80;;;;;;5052579;28;20025;-70
2021/06/13 10:56:00;;;;;;;5.80;2.53;;;19.30;72.10;;;;;;5051862;28;20025;-70
2021/06/13 10:58:50;;;;;;;9.18;2.60;;;19.50;70.40;;;;;;5010371;28;20034;-70
2021/06/13 11:01:25;;;;;;;9.70;3.20;;;19.50;71.80;;;;;;5010283;28;20341;-70
2021/06/13 11:03:59;;;;;;;10.95;3.20;;;19.50;71.50;;;;;;5010304;28;20436;-70
2021/06/13 11:06:39;;;;;;;8.30;2.60;;;19.70;70.50;;;;;;5010325;28;20113;-70
2021/06/13 11:09:06;;;;;;;8.38;2.63;;;19.50;70.30;;;;;;5009955;28;20592;-70
2021/06/13 11:11:37;;;;;;;7.03;2.72;;;19.70;68.80;;;;;;4993583;28;20034;-70
2021/06/13 11:14:28;;;;;;;6.22;2.55;;;19.70;71.60;;;;;;5010090;28;20041;-70
2021/06/13 11:16:56;;;;;;;8.30;2.30;;;19.60;69.80;;;;;;5010210;28;20030;-70
2021/06/13 11:19:26;;;;;;;8.23;2.85;;;19.40;70.00;;;;;;5009815;28;20044;-70
2021/06/13 11:22:17;;;;;;;8.68;2.40;;;19.50;72.10;;;;;;5009998;28;20073;-71
2021/06/13 11:24:52;;;;;;;7.65;2.67;;;19.60;72.00;;;;;;5010042;28;20034;-70
2021/06/13 11:27:18;;;;;;;7.05;2.60;;;19.80;71.00;;;;;;5010013;28;20524;-70
2021/06/13 11:29:54;;;;;;;8.27;2.63;;;19.90;70.40;;;;;;5031895;28;20033;-70
2021/06/13 11:32:48;;;;;;;9.13;2.80;;;19.80;68.20;;;;;;5051876;28;20051;-70
2021/06/13 11:35:26;;;;;;;8.25;2.58;;;20.00;69.00;;;;;;5051828;28;20025;-70
2021/06/13 11:38:11;;;;;;;11.07;2.83;;;20.10;69.00;;;;;;5051905;28;20035;-70
2021/06/13 11:40:48;;;;;;;6.47;2.33;;;19.80;68.70;;;;;;5051584;28;20025;-70
2021/06/13 11:43:17;;;;;;;6.45;2.53;;;19.60;69.50;;;;;;5033796;28;20021;-70
2021/06/13 11:46:00;;;;;;;11.15;2.65;;;19.80;72.40;;;;;;5051756;28;20017;-70
2021/06/13 11:48:31;;;;;;;8.07;2.55;;;20.20;70.20;;;;;;5051771;28;20024;-70
2021/06/13 11:51:09;;;;;;;8.52;2.72;;;20.30;71.30;;;;;;5051453;28;20091;-70
2021/06/13 11:53:51;;;;;;;8.57;2.78;;;20.40;70.50;;;;;;5051373;28;20099;-70
2021/06/13 11:56:35;;;;;;;7.82;2.25;;;20.00;69.00;;;;;;5051538;28;20025;-70
2021/06/13 11:59:21;;;;;;;5.93;2.50;;;20.20;70.70;;;;;;5051317;28;20098;-70
2021/06/13 12:01:59;;;;;;;11.10;2.72;;;20.40;75.30;;;;;;5051426;28;20029;-69
2021/06/13 12:04:26;;;;;;;7.57;2.90;;;20.60;69.20;;;;;;5051583;28;20032;-70
2021/06/13 12:06:53;;;;;;;9.15;2.80;;;20.40;69.10;;;;;;5036563;28;20104;-70
2021/06/13 12:09:20;;;;;;;8.50;2.55;;;20.30;71.50;;;;;;5055360;28;20021;-70
2021/06/13 12:11:53;;;;;;;7.35;2.30;;;20.40;68.90;;;;;;5055408;28;20252;-70
2021/06/13 12:14:35;;;;;;;8.50;2.78;;;20.60;67.90;;;;;;5055389;28;20048;-70
2021/06/13 12:17:14;;;;;;;10.55;3.05;;;20.80;73.00;;;;;;5055455;28;20055;-70
2021/06/13 12:20:01;;;;;;;6.05;2.35;;;20.90;70.40;;;;;;5055107;28;20021;-70
2021/06/13 12:27:49;;;;;;;6.35;2.35;;;21.30;65.70;;;;;;5055427;28;20057;-70
2021/06/13 12:30:24;;;;;;;5.85;2.40;;;21.00;66.60;;;;;;5054930;28;20025;-70
2021/06/13 12:32:58;;;;;;;7.45;2.25;;;21.00;69.50;;;;;;5054846;28;20091;-70
2021/06/13 12:35:29;;;;;;;8.32;3.00;;;21.30;68.30;;;;;;5055081;28;20025;-70
2021/06/13 12:38:07;;;;;;;7.80;2.63;;;21.80;68.50;;;;;;5055021;28;20017;-70
2021/06/13 12:40:48;;;;;;;8.77;2.22;;;21.80;66.60;;;;;;5036749;28;20025;-70
2021/06/13 12:43:14;;;;;;;;;;;21.40;66.10;;;;;;5055326;28;20482;-70
2021/06/13 12:45:42;;;;;;;13.00;2.63;;;20.70;70.00;;;;;;5054862;28;20351;-70
2021/06/13 12:48:10;;;;;;;9.35;2.70;;;20.70;68.40;;;;;;5054834;28;20032;-70
2021/06/13 12:50:41;;;;;;;8.57;2.80;;;20.80;67.80;;;;;;5036552;28;20031;-70
2021/06/13 12:53:11;;;;;;;7.45;2.50;;;20.90;68.60;;;;;;5054281;28;20021;-70
2021/06/13 12:55:39;;;;;;;7.60;2.35;;;21.40;66.30;;;;;;5054718;28;20100;-70
2021/06/13 12:58:13;;;;;;;8.00;2.38;;;21.50;63.50;;;;;;5054631;28;20025;-70
2021/06/13 13:00:39;;;;;;;7.80;2.47;;;21.40;68.60;;;;;;5054375;28;20024;-70
2021/06/13 13:03:13;;;;;;;6.03;2.30;;;21.70;64.80;;;;;;5054408;28;20090;-70
2021/06/13 13:05:41;;;;;;;5.82;2.20;;;22.50;64.00;;;;;;5055095;28;20075;-69
2021/06/13 13:08:15;;;;;;;6.88;1.92;;;23.30;63.30;;;;;;5054350;28;20021;-69
2021/06/13 13:10:40;;;;;;;8.15;2.22;;;24.20;63.00;;;;;;5054077;28;20036;-69
2021/06/13 13:13:06;;;;;;;6.60;2.58;;;25.20;61.30;;;;;;5036315;28;20021;-69
2021/06/13 13:15:35;;;;;;;7.18;2.20;;;25.90;57.30;;;;;;5054294;28;20028;-69
2021/06/13 13:18:16;;;;;;;7.38;2.45;;;26.30;56.70;;;;;;5053901;28;20013;-69
2021/06/13 13:20:56;;;;;;;4.97;2.13;;;25.70;56.30;;;;;;5053959;28;20025;-69
2021/06/13 13:23:22;;;;;;;6.95;1.95;;;24.90;57.20;;;;;;5054151;28;20025;-68
2021/06/13 13:25:53;;;;;;;6.45;2.53;;;25.20;59.60;;;;;;5054075;28;20510;-69
2021/06/13 13:28:29;;;;;;;6.97;2.10;;;25.60;55.50;;;;;;5054052;28;20039;-69
2021/06/13 13:31:15;;;;;;;6.53;2.33;;;26.00;54.30;;;;;;5053788;28;20021;-69
2021/06/13 13:33:43;;;;;;;9.15;2.17;;;26.00;54.70;;;;;;5053809;28;20439;-68
2021/06/13 13:36:10;;;;;;;8.10;2.17;;;25.90;55.80;;;;;;5053799;28;20021;-68
2021/06/13 13:38:44;;;;;;;7.00;2.92;;;26.50;56.50;;;;;;5053785;28;20021;-69
2021/06/13 13:41:12;;;;;;;8.07;2.45;;;27.20;53.80;;;;;;5035785;28;20051;-68
2021/06/13 13:43:38;;;;;;;7.85;2.05;;;26.60;53.10;;;;;;5053721;28;20112;-68
2021/06/13 13:46:05;;;;;;;6.93;2.53;;;26.40;54.10;;;;;;5053705;28;20025;-69
2021/06/13 13:48:31;;;;;;;7.78;3.00;;;26.80;54.70;;;;;;5053689;28;20029;-69
2021/06/13 13:51:03;;;;;;;5.47;1.88;;;27.40;53.30;;;;;;5053349;28;20032;-69
2021/06/13 13:53:51;;;;;;;7.15;2.03;;;27.20;52.50;;;;;;5053057;28;20025;-69
2021/06/13 13:56:19;;;;;;;9.63;3.03;;;26.70;52.90;;;;;;5053079;28;20578;-68
2021/06/13 13:58:45;;;;;;;5.82;1.90;;;26.20;53.50;;;;;;5053236;28;20544;-68
2021/06/13 14:01:11;;;;;;;5.50;1.80;;;26.90;52.80;;;;;;5053132;28;20108;-68
2021/06/13 14:03:37;;;;;;;5.63;2.20;;;27.90;50.40;;;;;;5053386;28;20031;-68
2021/06/13 14:06:05;;;;;;;6.68;1.92;;;28.90;49.70;;;;;;5035523;28;20028;-69
2021/06/13 14:08:47;;;;;;;6.38;2.28;;;29.50;48.40;;;;;;5053292;28;20529;-69
2021/06/13 14:11:16;;;;;;;8.48;2.38;;;29.90;48.00;;;;;;5053104;28;20039;-70
2021/06/13 14:13:42;;;;;;;6.50;2.40;;;30.40;48.40;;;;;;5053188;28;20029;-70
2021/06/13 14:16:08;;;;;;;9.52;2.13;;;31.20;46.90;;;;;;5035193;28;20028;-70
2021/06/13 14:18:33;;;;;;;7.00;3.55;;;31.00;45.60;;;;;;5052964;28;20036;-70
2021/06/13 14:20:59;;;;;;;8.65;2.97;;;30.10;44.80;;;;;;5052789;28;20021;-70
2021/06/13 14:23:25;;;;;;;8.98;2.75;;;29.60;47.30;;;;;;5052728;28;20546;-71
2021/06/13 14:25:54;;;;;;;9.73;2.67;;;30.10;47.20;;;;;;5053043;28;20495;-71
2021/06/13 14:28:21;;;;;;;5.78;2.08;;;30.40;45.90;;;;;;5052792;28;20111;-70
2021/06/13 14:30:46;;;;;;;8.40;3.30;;;30.50;46.60;;;;;;5051660;28;20029;-71
2021/06/13 14:33:14;;;;;;;13.70;6.25;;;30.00;46.20;;;;;;5053022;28;20498;-71
2021/06/13 14:35:40;;;;;;;9.02;3.83;;;28.80;47.10;;;;;;5052927;28;20020;-71
2021/06/13 14:38:05;;;;;;;13.23;4.93;;;28.50;48.00;;;;;;5052831;28;20036;-71
2021/06/13 14:40:31;;;;;;;12.80;3.28;;;29.40;46.60;;;;;;5052499;28;20024;-71
2021/06/13 14:42:57;;;;;;;7.05;2.63;;;29.70;47.10;;;;;;5052691;28;20379;-72
2021/06/13 14:45:22;;;;;;;11.02;3.28;;;30.80;46.00;;;;;;5052780;28;20021;-71
2021/06/13 14:47:48;;;;;;;6.45;2.30;;;32.10;43.80;;;;;;5052650;28;20021;-72
2021/06/13 14:50:14;;;;;;;6.65;2.80;;;32.80;45.70;;;;;;5034512;28;20391;-71
2021/06/13 14:52:42;;;;;;;9.70;3.60;;;33.00;44.20;;;;;;5052279;28;20487;-71
2021/06/13 14:55:08;;;;;;;5.95;2.47;;;32.90;41.50;;;;;;5052756;28;20079;-71
2021/06/13 14:57:34;;;;;;;11.77;5.22;;;30.60;43.20;;;;;;5052528;28;20033;-72
2021/06/13 15:00:00;;;;;;;7.28;2.50;;;30.60;44.50;;;;;;5052731;28;20020;-73
2021/06/13 15:02:25;;;;;;;7.28;2.35;;;31.30;44.90;;;;;;5052337;28;20051;-72
2021/06/13 15:04:51;;;;;;;9.20;3.17;;;33.30;43.20;;;;;;5052366;28;20059;-71
2021/06/13 15:07:17;;;;;;;8.48;2.42;;;33.30;41.20;;;;;;5052432;28;20498;-72
2021/06/13 15:09:43;;;;;;;6.47;1.98;;;34.30;44.30;;;;;;5052018;28;20114;-72
2021/06/13 15:12:09;;;;;;;5.90;2.13;;;34.90;39.80;;;;;;5052278;28;20487;-72
2021/06/13 15:14:34;;;;;;;6.90;2.55;;;33.90;41.80;;;;;;5052146;28;20052;-72
2021/06/13 15:17:00;;;;;;;8.20;2.38;;;34.50;40.60;;;;;;5052155;28;20044;-79
2021/06/13 15:19:26;;;;;;;7.22;2.33;;;35.60;40.80;;;;;;5033988;28;20029;-72
2021/06/13 15:21:52;;;;;;;12.32;2.45;;;36.50;38.90;;;;;;5051937;28;20067;-72
2021/06/13 15:24:19;;;;;;;7.75;1.92;;;35.90;39.20;;;;;;5052025;28;20025;-72
2021/06/13 15:26:45;;;;;;;6.57;2.03;;;36.00;39.30;;;;;;5034204;28;20517;-72
2021/06/13 15:29:14;;;;;;;6.68;2.33;;;36.30;40.50;;;;;;5033881;28;20029;-72
2021/06/13 15:31:43;;;;;;;8.33;2.50;;;36.70;39.80;;;;;;5051848;28;20382;-72
2021/06/13 15:34:10;;;;;;;;;;;37.40;39.80;;;;;;5052229;28;20021;-72
2021/06/13 15:36:36;;;;;;;5.50;2.03;;;38.30;37.30;;;;;;5033934;28;19911;-72
2021/06/13 15:39:03;;;;;;;6.40;2.00;;;39.20;37.90;;;;;;5033730;28;20028;-73
2021/06/13 15:41:29;;;;;;;6.35;1.98;;;39.70;37.60;;;;;;5033528;28;20124;-72
2021/06/13 15:43:54;;;;;;;6.72;2.35;;;38.30;36.40;;;;;;5051765;28;20104;-72
2021/06/13 15:46:21;;;;;;;6.05;1.77;;;34.60;38.00;;;;;;5051792;28;20017;-72
2021/06/13 15:48:47;;;;;;;4.25;1.88;;;35.90;39.30;;;;;;5033791;28;20083;-72
2021/06/13 15:51:14;;;;;;;5.60;2.10;;;37.90;41.30;;;;;;5051438;28;20029;-73
2021/06/13 15:53:53;;;;;;;7.45;2.42;;;38.30;38.50;;;;;;5051725;28;20514;-73
2021/06/13 15:56:28;;;;;;;7.07;1.85;;;37.00;39.50;;;;;;5051772;28;20061;-72
2021/06/13 15:58:55;;;;;;;6.22;2.20;;;35.80;37.30;;;;;;5051344;28;20028;-72
2021/06/13 16:01:23;;;;;;;7.05;2.33;;;33.60;38.60;;;;;;5051485;28;20025;-72
2021/06/13 16:03:48;;;;;;;7.70;2.45;;;35.30;41.20;;;;;;5051822;28;20095;-72
2021/06/13 16:06:17;;;;;;;7.78;2.08;;;36.80;38.70;;;;;;5051516;28;20025;-72
2021/06/13 16:08:47;;;;;;;6.40;2.45;;;39.10;39.60;;;;;;5033623;28;20498;-72
2021/06/13 16:11:15;;;;;;;;;;;41.80;38.50;;;;;;5044232;28;20055;-72
2021/06/13 16:13:41;;;;;;;7.72;2.20;;;43.70;37.40;;;;;;5041869;28;20404;-73
2021/06/13 16:16:07;;;;;;;8.30;2.38;;;44.40;35.40;;;;;;5022237;28;20475;-74
2021/06/13 16:18:32;;;;;;;13.68;2.58;;;43.30;34.40;;;;;;5020901;28;20036;-74
2021/06/13 16:20:58;;;;;;;7.90;2.15;;;42.20;34.50;;;;;;5031310;28;20025;-74
2021/06/13 16:23:23;;;;;;;8.13;2.30;;;40.50;35.20;;;;;;5013822;28;20025;-74
2021/06/13 16:25:49;;;;;;;8.93;2.08;;;40.30;36.10;;;;;;5013832;28;20022;-74
2021/06/13 16:28:15;;;;;;;6.72;2.53;;;40.80;35.10;;;;;;5013785;28;20026;-74
2021/06/13 16:30:40;;;;;;;6.60;2.10;;;41.00;35.40;;;;;;5031148;28;20065;-74
2021/06/13 16:33:06;;;;;;;6.22;2.33;;;42.20;34.80;;;;;;5031319;28;20071;-74
2021/06/13 16:35:32;;;;;;;5.68;2.15;;;42.10;34.40;;;;;;5013752;28;20033;-74
2021/06/13 16:37:57;;;;;;;7.20;2.22;;;41.50;33.50;;;;;;5031481;28;20100;-74
2021/06/13 16:40:23;;;;;;;6.60;2.38;;;41.90;34.20;;;;;;5031048;28;20018;-74
2021/06/13 16:42:51;;;;;;;7.35;2.45;;;41.40;33.90;;;;;;5013597;28;20030;-74
2021/06/13 16:45:17;;;;;;;5.75;2.17;;;38.80;35.30;;;;;;5031392;28;20033;-73
2021/06/13 16:47:42;;;;;;;7.43;2.03;;;38.70;36.10;;;;;;5013569;28;20026;-74
2021/06/13 16:50:08;;;;;;;6.13;2.22;;;39.90;35.40;;;;;;5013271;28;20029;-74
2021/06/13 16:52:34;;;;;;;6.60;2.30;;;40.20;35.40;;;;;;5031666;28;20040;-74
2021/06/13 16:54:59;;;;;;;6.82;2.25;;;38.90;34.90;;;;;;5034786;28;20104;-74
2021/06/13 16:57:25;;;;;;;7.50;2.30;;;38.20;35.80;;;;;;5034768;28;20032;-74
2021/06/13 16:59:51;;;;;;;8.75;2.38;;;37.60;35.70;;;;;;5034398;28;20025;-74
2021/06/13 17:02:17;;;;;;;5.97;2.05;;;38.20;35.30;;;;;;5034704;28;20052;-74
2021/06/13 17:04:44;;;;;;;8.88;2.17;;;39.00;35.40;;;;;;5034727;28;20025;-74
2021/06/13 17:07:10;;;;;;;6.32;2.20;;;40.30;34.40;;;;;;5044598;28;20078;-74
2021/06/13 17:09:36;;;;;;;6.93;2.00;;;40.60;34.20;;;;;;5042366;28;20033;-74
2021/06/13 17:12:02;;;;;;;7.40;2.20;;;38.40;35.40;;;;;;5034373;28;20045;-73
2021/06/13 17:14:27;;;;;;;6.32;2.00;;;38.00;35.40;;;;;;5034379;28;20391;-74
2021/06/13 17:16:53;;;;;;;7.40;2.53;;;36.40;35.50;;;;;;5034448;28;20100;-74
2021/06/13 17:19:19;;;;;;;8.23;2.40;;;34.80;37.50;;;;;;5016366;28;20083;-74
2021/06/13 17:21:46;;;;;;;7.30;2.15;;;34.00;37.20;;;;;;5034271;28;20427;-74
2021/06/13 17:24:12;;;;;;;4.30;1.88;;;33.20;38.30;;;;;;5034319;28;20475;-74
2021/06/13 17:26:39;;;;;;;7.53;2.22;;;32.80;39.00;;;;;;5034194;28;20113;-74
2021/06/13 17:29:06;;;;;;;7.00;2.38;;;33.20;38.70;;;;;;5033981;28;20488;-74
2021/06/13 17:31:33;;;;;;;7.80;2.28;;;31.70;40.40;;;;;;5034053;28;20560;-74
2021/06/13 17:34:01;;;;;;;7.25;2.55;;;30.40;40.60;;;;;;5016332;28;20030;-74
2021/06/13 17:36:29;;;;;;;6.70;2.10;;;29.80;41.60;;;;;;5034094;28;20032;-74
2021/06/13 17:38:59;;;;;;;8.80;2.55;;;29.70;42.00;;;;;;5033826;28;20021;-74
2021/06/13 17:41:42;;;;;;;8.15;2.70;;;29.30;42.00;;;;;;5033788;28;20018;-74
2021/06/13 17:44:08;;;;;;;7.90;2.40;;;28.30;44.60;;;;;;5034145;28;20112;-74
2021/06/13 17:46:34;;;;;;;7.30;2.78;;;27.80;46.60;;;;;;5033897;28;20049;-74
2021/06/13 17:49:00;;;;;;;8.55;2.45;;;27.40;45.20;;;;;;5033557;28;20033;-74
2021/06/13 17:51:25;;;;;;;10.40;2.80;;;27.00;45.10;;;;;;5033640;28;20033;-74
2021/06/13 17:53:52;;;;;;;7.93;2.60;;;26.70;45.40;;;;;;5033635;28;20394;-74
2021/06/13 17:56:17;;;;;;;5.88;2.15;;;26.10;46.80;;;;;;5033683;28;20549;-74
2021/06/13 17:58:43;;;;;;;8.13;2.65;;;25.60;49.90;;;;;;5033633;28;20025;-74
2021/06/13 18:01:08;;;;;;;9.25;2.60;;;25.40;47.00;;;;;;5033452;28;20014;-74
2021/06/13 18:03:34;;;;;;;9.20;2.70;;;25.60;49.80;;;;;;5033298;28;20062;-74
2021/06/13 18:05:59;;;;;;;8.10;2.42;;;25.50;48.50;;;;;;5033553;28;20029;-74
2021/06/13 18:08:25;;;;;;;8.55;3.00;;;25.30;50.70;;;;;;5033414;28;20036;-74
2021/06/13 18:10:51;;;;;;;7.40;2.95;;;24.80;50.50;;;;;;5033245;28;20029;-74
2021/06/13 18:13:18;;;;;;;8.10;2.95;;;24.60;49.30;;;;;;5033235;28;20052;-74
2021/06/13 18:15:44;;;;;;;9.57;2.80;;;24.30;50.20;;;;;;5015548;28;20025;-74
2021/06/13 18:18:09;;;;;;;7.47;2.22;;;24.00;51.10;;;;;;5015611;28;20031;-74
2021/06/13 18:20:36;;;;;;;9.50;3.03;;;23.90;52.20;;;;;;5032966;28;20104;-74
2021/06/13 18:23:01;;;;;;;6.55;2.33;;;23.60;53.80;;;;;;5033055;28;20032;-74
2021/06/13 18:25:27;;;;;;;9.30;2.45;;;23.40;54.10;;;;;;5015508;28;20025;-74
2021/06/13 18:27:53;;;;;;;7.03;2.70;;;23.30;54.40;;;;;;5033029;28;20480;-74
2021/06/13 18:30:19;;;;;;;9.52;2.92;;;23.00;55.30;;;;;;5033044;28;20026;-74
2021/06/13 18:32:45;;;;;;;10.63;3.10;;;22.60;56.40;;;;;;5033010;28;20025;-74
2021/06/13 18:35:11;;;;;;;7.45;2.55;;;22.40;57.10;;;;;;5033026;28;20025;-74
2021/06/13 18:37:37;;;;;;;9.23;2.50;;;22.30;57.40;;;;;;5033340;28;20026;-74
2021/06/13 18:40:04;;;;;;;8.93;2.95;;;22.30;57.80;;;;;;5032682;28;20182;-74
2021/06/13 18:42:30;;;;;;;6.68;2.17;;;22.20;58.30;;;;;;5014923;28;20116;-74
2021/06/13 18:44:55;;;;;;;8.57;3.05;;;21.90;60.10;;;;;;5032820;28;20064;-74
2021/06/13 18:47:21;;;;;;;7.63;2.28;;;21.70;60.30;;;;;;5032657;28;20048;-74
2021/06/13 18:49:46;;;;;;;8.75;2.90;;;21.40;60.90;;;;;;5032435;28;20033;-74
2021/06/13 18:52:12;;;;;;;11.35;2.97;;;21.20;62.10;;;;;;5014687;28;20041;-74
2021/06/13 18:54:38;;;;;;;9.98;2.80;;;21.00;62.60;;;;;;5032678;28;20100;-74
2021/06/13 18:57:04;;;;;;;6.93;3.00;;;20.90;62.70;;;;;;5032746;28;20075;-74
2021/06/13 18:59:30;;;;;;;7.43;3.00;;;20.60;62.70;;;;;;5032326;28;20021;-74
2021/06/13 19:01:56;;;;;;;10.68;3.55;;;20.50;63.70;;;;;;5032482;28;20499;-73
2021/06/13 19:04:21;;;;;;;10.57;2.83;;;20.20;64.10;;;;;;5015387;28;20052;-75
2021/06/13 19:06:48;;;;;;;8.88;3.03;;;20.10;65.30;;;;;;5014689;28;20483;-74
2021/06/13 19:09:16;;;;;;;9.20;3.38;;;20.10;65.00;;;;;;5032083;28;20383;-74